createdAt,value
2018-09-20T05:01:29.580Z,16.40
2018-09-20T05:03:57.233Z,16.30
2018-09-20T05:06:24.852Z,16.20
2018-09-20T05:08:52.501Z,16.20
2018-09-20T05:11:20.143Z,16.20
2018-09-20T05:13:47.771Z,16.30
2018-09-20T05:16:17.461Z,16.20
2018-09-20T05:18:45.154Z,16.30
2018-09-20T05:21:12.723Z,16.30
2018-09-20T05:23:40.539Z,16.40
2018-09-20T05:26:08.464Z,16.40
2018-09-20T05:28:37.385Z,16.40
2018-09-20T05:31:05.041Z,16.40
2018-09-20T05:33:32.755Z,16.40
2018-09-20T05:36:15.282Z,16.40
2018-09-20T05:38:42.975Z,16.50
2018-09-20T05:41:10.616Z,16.60
2018-09-20T05:43:50.131Z,16.60
2018-09-20T05:46:17.753Z,16.70
2018-09-20T05:48:45.414Z,16.70
2018-09-20T05:51:13.041Z,16.70
2018-09-20T05:53:40.664Z,16.90
2018-09-20T05:56:14.583Z,17.00
2018-09-20T05:58:42.212Z,17.00
2018-09-20T06:01:11.858Z,17.00
2018-09-20T06:03:39.497Z,17.20
2018-09-20T06:06:07.262Z,17.30
2018-09-20T06:08:35.208Z,17.40
2018-09-20T06:11:08.647Z,17.40
2018-09-20T06:13:36.767Z,17.60
2018-09-20T06:16:04.634Z,17.60
2018-09-20T06:18:32.318Z,17.70
2018-09-20T06:20:59.971Z,17.80
2018-09-20T06:23:27.763Z,18.00
2018-09-20T06:25:55.388Z,18.10
2018-09-20T06:28:23.080Z,18.30
2018-09-20T06:30:50.815Z,18.50
2018-09-20T06:33:18.751Z,18.70
2018-09-20T06:35:46.370Z,18.90
2018-09-20T06:38:14.373Z,19.00
2018-09-20T06:40:42.168Z,19.10
2018-09-20T06:43:18.102Z,19.30
2018-09-20T06:45:45.790Z,19.40
2018-09-20T06:48:24.299Z,19.50
2018-09-20T06:50:52.045Z,19.60
2018-09-20T06:53:19.789Z,19.60
2018-09-20T06:55:47.990Z,19.70
2018-09-20T06:58:15.829Z,19.80
2018-09-20T07:00:43.553Z,19.90
2018-09-20T07:03:11.211Z,19.80
2018-09-20T07:05:38.907Z,19.80
2018-09-20T07:08:06.609Z,19.80
2018-09-20T07:10:46.002Z,19.80
2018-09-20T07:13:13.660Z,19.80
2018-09-20T07:15:41.426Z,19.80
2018-09-20T07:18:09.447Z,19.80
2018-09-20T07:20:37.081Z,19.80
2018-09-20T07:23:04.974Z,19.90
2018-09-20T07:25:35.335Z,20.00
2018-09-20T07:28:04.168Z,20.10
2018-09-20T07:30:31.813Z,20.30
2018-09-20T07:32:59.483Z,20.60
2018-09-20T07:35:27.203Z,20.70
2018-09-20T07:37:54.882Z,21.00
2018-09-20T07:40:22.582Z,21.20
2018-09-20T07:42:50.307Z,21.50
2018-09-20T07:45:18.073Z,21.70
2018-09-20T07:47:45.760Z,22.00
2018-09-20T07:50:13.428Z,22.30
2018-09-20T07:52:41.155Z,22.70
2018-09-20T07:55:09.125Z,23.00
2018-09-20T07:57:36.762Z,23.10
2018-09-20T08:00:04.498Z,23.10
2018-09-20T08:02:32.164Z,23.30
2018-09-20T08:04:59.947Z,23.60
2018-09-20T08:07:28.562Z,23.90
2018-09-20T08:09:56.331Z,24.20
2018-09-20T08:12:24.113Z,24.50
2018-09-20T08:14:56.966Z,24.80
2018-09-20T08:17:24.810Z,24.80
2018-09-20T08:19:52.521Z,25.00
2018-09-20T08:22:20.312Z,25.20
2018-09-20T08:24:48.733Z,25.50
2018-09-20T08:27:16.486Z,25.70
2018-09-20T08:29:44.256Z,25.90
2018-09-20T08:32:12.015Z,25.90
2018-09-20T08:34:39.745Z,26.10
2018-09-20T08:37:12.946Z,26.20
2018-09-20T08:39:41.069Z,26.10
2018-09-20T08:42:08.759Z,26.10
2018-09-20T08:44:37.214Z,26.20
2018-09-20T08:47:06.228Z,26.40
2018-09-20T08:49:33.924Z,26.20
2018-09-20T08:52:02.218Z,26.00
2018-09-20T08:54:29.872Z,26.20
2018-09-20T08:56:57.898Z,26.40
2018-09-20T08:59:27.818Z,26.60
2018-09-20T09:01:55.924Z,26.70
2018-09-20T09:04:23.689Z,26.70
2018-09-20T09:06:51.718Z,26.70
2018-09-20T09:09:19.466Z,26.90
2018-09-20T10:01:37.713Z,28.40
2018-09-20T10:04:05.197Z,28.50
2018-09-20T10:06:32.618Z,28.60
2018-09-20T10:09:01.293Z,28.70
2018-09-20T10:11:28.877Z,29.00
2018-09-20T10:13:56.547Z,28.90
2018-09-20T10:16:24.220Z,28.90
2018-09-20T10:18:51.895Z,29.10
2018-09-20T10:21:19.619Z,29.30
2018-09-20T10:23:49.288Z,29.60
2018-09-20T10:26:18.042Z,29.90
2018-09-20T10:28:45.745Z,30.00
2018-09-20T10:31:13.384Z,29.90
2018-09-20T10:33:41.117Z,29.80
2018-09-20T10:36:08.847Z,29.70
2018-09-20T10:38:37.185Z,29.90
2018-09-20T10:41:05.072Z,30.10
2018-09-20T10:46:19.064Z,30.00
2018-09-20T10:48:46.758Z,29.80
2018-09-20T10:51:17.364Z,29.90
2018-09-20T10:53:45.220Z,29.90
2018-09-20T10:59:03.351Z,30.40
2018-09-20T11:01:31.049Z,30.60
2018-09-20T11:03:58.705Z,30.50
2018-09-20T11:08:59.609Z,30.10
2018-09-20T11:17:42.405Z,29.90
2018-09-20T11:20:10.676Z,29.90
2018-09-20T11:22:38.694Z,29.90
2018-09-20T11:25:07.608Z,29.90
2018-09-20T11:27:37.437Z,30.00
2018-09-20T11:30:10.408Z,30.00
2018-09-20T11:32:53.950Z,29.90
2018-09-20T11:35:22.582Z,30.10
2018-09-20T11:37:51.082Z,30.00
2018-09-20T11:40:19.397Z,30.00
2018-09-20T11:42:48.542Z,30.00
2018-09-20T11:45:25.560Z,29.90
2018-09-20T11:47:53.551Z,30.10
2018-09-20T11:50:24.420Z,30.10
2018-09-20T11:52:58.196Z,30.30
2018-09-20T11:55:33.485Z,30.50
2018-09-20T11:58:01.966Z,30.30
2018-09-20T12:03:28.486Z,30.10
2018-09-20T12:06:04.540Z,29.90
2018-09-20T12:08:38.324Z,30.10
2018-09-20T12:11:06.657Z,30.00
2018-09-20T12:13:35.242Z,30.10
2018-09-20T12:16:04.306Z,30.20
2018-09-20T12:18:31.977Z,30.00
2018-09-20T12:20:59.665Z,29.90
2018-09-20T12:23:28.775Z,29.80
2018-09-20T12:25:57.390Z,29.70
2018-09-20T12:28:26.285Z,29.70
2018-09-20T12:31:06.599Z,29.80
2018-09-20T12:33:36.180Z,29.60
2018-09-20T12:36:04.144Z,29.60
2018-09-20T12:38:31.821Z,29.30
2018-09-20T12:40:59.781Z,29.40
2018-09-20T12:43:30.100Z,29.30
2018-09-20T12:45:57.898Z,29.40
2018-09-20T12:48:25.663Z,29.30
2018-09-20T12:50:53.585Z,29.60
2018-09-20T12:53:22.436Z,29.50
2018-09-20T12:56:00.385Z,29.60
2018-09-20T12:58:33.818Z,29.60
2018-09-20T13:01:09.130Z,29.60
2018-09-20T13:03:40.740Z,29.60
2018-09-20T13:06:12.923Z,29.50
2018-09-20T13:08:40.759Z,29.60
2018-09-20T13:11:08.561Z,29.50
2018-09-20T13:13:38.366Z,29.60
2018-09-20T13:16:06.289Z,29.60
2018-09-20T13:18:35.031Z,29.60
2018-09-20T13:21:02.873Z,29.60
2018-09-20T13:23:30.926Z,29.70
2018-09-20T13:26:17.429Z,29.80
2018-09-20T13:28:52.373Z,29.90
2018-09-20T13:31:37.427Z,29.80
2018-09-20T13:34:15.580Z,29.70
2018-09-20T13:36:46.092Z,29.50
2018-09-20T13:39:20.790Z,29.60
2018-09-20T13:41:50.646Z,29.70
2018-09-20T13:44:38.554Z,29.60
2018-09-20T13:47:08.331Z,29.70
2018-09-20T13:49:36.319Z,29.70
2018-09-20T13:52:17.346Z,29.60
2018-09-20T13:54:45.150Z,29.30
2018-09-20T13:57:12.866Z,29.30
2018-09-20T13:59:41.846Z,29.30
2018-09-20T14:02:14.756Z,29.20
2018-09-20T14:04:42.650Z,29.30
2018-09-20T14:07:10.827Z,29.20
2018-09-20T14:09:39.914Z,29.20
2018-09-20T14:12:10.336Z,29.10
2018-09-20T14:14:41.498Z,28.90
2018-09-20T14:17:09.703Z,29.00
2018-09-20T14:19:38.710Z,29.00
2018-09-20T14:22:08.069Z,29.00
2018-09-20T14:24:55.100Z,29.10
2018-09-20T14:30:06.548Z,28.80
2018-09-20T14:32:34.843Z,28.70
2018-09-20T14:35:04.539Z,28.60
2018-09-20T14:37:35.410Z,28.40
2018-09-20T14:40:03.283Z,28.30
2018-09-20T14:42:31.305Z,28.30
2018-09-20T14:44:59.206Z,28.40
2018-09-20T14:47:30.056Z,28.40
2018-09-20T14:49:58.646Z,28.30
2018-09-20T14:52:28.151Z,28.30
2018-09-20T14:54:58.850Z,28.10
2018-09-20T14:57:29.162Z,28.10
2018-09-20T15:00:12.768Z,28.10
2018-09-20T15:02:40.509Z,28.00
2018-09-20T15:05:08.488Z,28.00
2018-09-20T15:07:36.219Z,27.90
2018-09-20T15:10:15.803Z,28.00
2018-09-20T16:11:34.795Z,28.00
2018-09-20T16:14:11.881Z,28.00
2018-09-20T16:16:39.621Z,27.80
2018-09-20T16:19:07.302Z,27.80
2018-09-20T16:21:35.000Z,27.80
2018-09-20T16:24:02.684Z,27.80
2018-09-20T16:26:30.293Z,27.80
2018-09-20T16:29:02.865Z,27.80
2018-09-20T16:35:50.871Z,27.80
2018-09-20T16:38:23.167Z,27.70
2018-09-20T16:40:52.033Z,27.60
2018-09-20T16:43:19.665Z,27.60
2018-09-20T16:45:47.300Z,27.60
2018-09-20T16:48:14.948Z,27.60
2018-09-20T16:50:42.708Z,27.60
2018-09-20T16:53:10.481Z,27.50
2018-09-20T16:55:38.233Z,27.40
2018-09-20T16:58:05.873Z,27.30
2018-09-20T17:00:33.556Z,27.30
2018-09-20T17:03:06.531Z,27.20
2018-09-20T17:05:34.295Z,27.20
2018-09-20T17:08:01.988Z,27.10
2018-09-20T17:10:29.730Z,27.00
2018-09-20T17:12:57.449Z,26.90
2018-09-20T17:15:25.095Z,26.90
2018-09-20T17:17:52.668Z,26.80
2018-09-20T17:20:20.305Z,26.90
2018-09-20T17:22:47.888Z,26.80
2018-09-20T17:25:15.609Z,26.80
2018-09-20T17:27:43.180Z,26.80
2018-09-20T17:30:10.884Z,26.80
2018-09-20T17:32:38.444Z,26.70
2018-09-20T17:35:06.270Z,26.60
2018-09-20T17:37:34.389Z,26.40
2018-09-20T17:40:02.344Z,26.30
2018-09-20T17:42:30.420Z,26.10
2018-09-20T17:44:58.387Z,25.90
2018-09-20T17:47:26.350Z,25.70
2018-09-20T17:49:59.734Z,25.60
2018-09-20T17:52:35.456Z,25.50
2018-09-20T17:55:10.118Z,25.30
2018-09-20T17:57:41.460Z,25.10
2018-09-20T18:00:59.436Z,25.00
2018-09-20T18:09:01.570Z,24.60
2018-09-20T18:11:30.595Z,24.50
2018-09-20T18:14:25.542Z,24.50
2018-09-20T18:16:53.636Z,24.40
2018-09-20T18:19:23.162Z,24.30
2018-09-20T18:21:51.398Z,24.10
2018-09-20T18:24:19.920Z,23.90
2018-09-20T18:26:48.200Z,23.90
2018-09-20T18:29:16.324Z,23.70
2018-09-20T18:31:54.319Z,23.60
2018-09-20T18:34:26.472Z,23.60
2018-09-20T18:36:55.660Z,23.50
2018-09-20T18:39:24.241Z,23.50
2018-09-20T18:41:54.099Z,23.30
2018-09-20T18:45:35.525Z,23.30
2018-09-20T18:48:03.303Z,23.10
2018-09-20T18:50:31.369Z,23.20
2018-09-20T18:52:59.107Z,23.10
2018-09-20T18:55:27.017Z,23.10
2018-09-20T18:57:54.834Z,23.10
2018-09-20T19:00:22.583Z,23.00
2018-09-20T19:02:50.438Z,23.00
2018-09-20T19:05:18.247Z,22.90
2018-09-20T19:07:50.151Z,22.80
2018-09-20T19:10:54.716Z,22.80
2018-09-20T19:13:22.464Z,22.80
2018-09-20T19:15:50.159Z,22.70
2018-09-20T19:18:19.060Z,22.80
2018-09-20T19:20:46.854Z,22.70
2018-09-20T19:23:14.673Z,22.70
2018-09-20T19:25:46.646Z,22.70
2018-09-20T19:28:14.429Z,22.60
2018-09-20T19:30:49.678Z,22.50
2018-09-20T19:33:17.389Z,22.50
2018-09-20T19:35:45.091Z,22.40
2018-09-20T19:38:12.893Z,22.40
2018-09-20T19:40:41.010Z,22.30
2018-09-20T19:43:08.805Z,22.20
2018-09-20T19:45:36.427Z,22.20
2018-09-20T19:48:04.228Z,22.10
2018-09-20T19:50:31.927Z,22.00
2018-09-20T19:52:59.594Z,21.90
2018-09-20T19:55:27.278Z,21.80
2018-09-20T19:57:57.338Z,21.70
2018-09-20T20:00:26.043Z,21.60
2018-09-20T20:02:53.722Z,21.60
2018-09-20T20:05:21.467Z,21.50
2018-09-20T20:07:53.469Z,21.40
2018-09-20T20:10:21.139Z,21.30
2018-09-20T20:12:48.759Z,21.20
2018-09-20T20:15:16.418Z,21.20
2018-09-20T20:17:44.090Z,21.10
2018-09-20T20:20:12.776Z,21.00
2018-09-20T20:22:41.039Z,21.00
2018-09-20T20:25:08.817Z,20.90
2018-09-20T20:27:36.473Z,20.90
2018-09-20T20:30:04.069Z,20.80
2018-09-20T20:32:31.934Z,20.80
2018-09-20T20:34:59.489Z,20.70
2018-09-20T20:37:27.055Z,20.70
2018-09-20T20:39:54.654Z,20.80
2018-09-20T20:42:22.253Z,20.70
2018-09-20T20:44:49.845Z,20.80
2018-09-20T20:47:17.381Z,20.80
2018-09-20T20:49:45.052Z,20.80
2018-09-20T20:52:12.673Z,20.80
2018-09-20T20:54:40.479Z,20.70
2018-09-20T20:57:08.078Z,20.70
2018-09-20T20:59:35.754Z,20.70
2018-09-20T21:02:03.374Z,20.60
2018-09-20T21:04:30.993Z,20.60
2018-09-20T21:06:58.618Z,20.60
2018-09-20T21:09:26.257Z,20.50
2018-09-20T21:11:53.863Z,20.50
2018-09-20T21:14:21.494Z,20.50
2018-09-20T21:16:49.154Z,20.40
2018-09-20T21:19:16.763Z,20.40
2018-09-20T21:21:44.379Z,20.40
2018-09-20T21:24:11.989Z,20.30
2018-09-20T21:26:39.600Z,20.20
2018-09-20T21:29:07.223Z,20.20
2018-09-20T21:31:34.799Z,20.10
2018-09-20T21:34:02.421Z,20.10
2018-09-20T21:36:30.026Z,20.00
2018-09-20T21:38:57.606Z,19.90
2018-09-20T21:41:25.177Z,19.90
2018-09-20T21:43:52.966Z,19.80
2018-09-20T21:46:20.528Z,19.70
2018-09-20T21:48:48.123Z,19.70
2018-09-20T21:51:15.766Z,19.60
2018-09-20T21:53:43.334Z,19.60
2018-09-20T21:56:10.969Z,19.60
2018-09-20T21:58:38.585Z,19.60
2018-09-20T22:01:06.134Z,19.50
2018-09-20T22:03:33.837Z,19.50
2018-09-20T22:06:01.458Z,19.50
2018-09-20T22:08:29.066Z,19.50
2018-09-20T22:10:56.657Z,19.50
2018-09-20T22:13:24.259Z,19.40
2018-09-20T22:15:51.922Z,19.30
2018-09-20T22:18:19.503Z,19.30
2018-09-20T22:20:47.174Z,19.20
2018-09-20T22:23:14.733Z,19.20
2018-09-20T22:25:42.341Z,19.10
2018-09-20T22:28:09.882Z,19.10
2018-09-20T22:30:37.494Z,19.00
2018-09-20T22:33:05.118Z,19.00
2018-09-20T22:35:32.802Z,18.90
2018-09-20T22:38:00.402Z,18.90
2018-09-20T22:40:28.009Z,18.90
2018-09-20T22:42:55.625Z,18.80
2018-09-20T22:45:23.226Z,18.80
2018-09-20T22:47:50.835Z,18.80
2018-09-20T22:50:18.451Z,18.80
2018-09-20T22:52:46.049Z,18.70
2018-09-20T22:55:13.713Z,18.70
2018-09-20T22:57:41.319Z,18.70
2018-09-20T23:00:08.955Z,18.70
2018-09-20T23:02:36.634Z,18.60
2018-09-20T23:05:04.306Z,18.60
2018-09-20T23:07:32.205Z,18.60
2018-09-20T23:09:59.822Z,18.60
2018-09-20T23:12:30.728Z,18.50
2018-09-20T23:14:58.406Z,18.50
2018-09-20T23:17:26.043Z,18.40
2018-09-20T23:19:53.709Z,18.40
2018-09-20T23:22:21.352Z,18.40
2018-09-20T23:24:48.939Z,18.30
2018-09-20T23:27:16.600Z,18.30
2018-09-20T23:29:44.202Z,18.20
2018-09-20T23:32:11.814Z,18.30
2018-09-20T23:34:39.438Z,18.20
2018-09-20T23:37:07.060Z,18.20
2018-09-20T23:39:34.641Z,18.20
2018-09-20T23:42:02.217Z,18.20
2018-09-20T23:44:29.844Z,18.10
2018-09-20T23:46:57.421Z,18.10
2018-09-20T23:49:25.203Z,18.10
2018-09-20T23:51:52.790Z,18.00
2018-09-20T23:54:20.492Z,18.00
2018-09-20T23:56:48.108Z,18.00
2018-09-20T23:59:15.730Z,17.90
